METAR Data
IDs: Format: Raw Decoded Include TAF

Data at: 1304 UTC 11 Dec 2018

KLRD 111256Z AUTO 14006KT 10SM CLR 06/05 A3038 RMK AO2 SLP307 T00610050
KLRD 111156Z 13005KT 10SM CLR 07/05 A3037 RMK AO2 SLP301 T00670050 10083 20056 55004
KLRD 110956Z AUTO 14004KT 10SM CLR 07/05 A3037 RMK AO2 SLP303 T00670050
KLRD 110856Z AUTO 13006KT 10SM CLR 07/05 A3038 RMK AO2 SLP304 T00720050 56007
KLRD 110756Z AUTO 13007KT 10SM CLR 07/05 A3038 RMK AO2 SLP306 T00720050 TSNO
KLRD 110656Z AUTO 11007KT 10SM CLR 08/04 A3039 RMK AO2 SLP308 T00780044
KLRD 110556Z AUTO 13006KT 10SM CLR 08/04 A3040 RMK AO2 SLP312 T00830039 10144 20083 401720039 50001
KLRD 110456Z 09005KT 10SM CLR 09/04 A3041 RMK AO2 SLP315 T00890039
KLRD 110356Z 10006KT 10SM CLR 09/04 A3040 RMK AO2 SLP312 T00890044
KLRD 110256Z 09006KT 10SM CLR 09/05 A3040 RMK AO2 SLP310 T00940050 51013
KLRD 110156Z 10005KT 10SM CLR 11/06 A3038 RMK AO2 SLP306 T01110056
KLRD 110056Z 09005KT 10SM CLR 12/06 A3037 RMK AO2 SLP302 T01220061
KLRD 102356Z 06003KT 10SM CLR 14/04 A3036 RMK AO2 SLP299 T01440039 10172 20128 53005
KLRD 102256Z 05004KT 10SM CLR 16/04 A3035 RMK AO2 SLP295 T01610039
KLRD 102156Z 34005KT 10SM CLR 16/04 A3034 RMK AO2 SLP291 T01610039
KLRD 102056Z 31004KT 10SM CLR 17/04 A3034 RMK AO2 SLP293 T01670039 56032
KLRD 101956Z 31004KT 10SM CLR 16/03 A3036 RMK AO2 SLP299 T01560033
KLRD 101856Z 00000KT 10SM CLR 14/03 A3039 RMK AO2 SLP310 T01440033
KLRD 101759Z 21005KT 10SM CLR 12/03 A3043
KLRD 101756Z 10SM CLR 12/03 A3044 RMK AO2 SLP326 T01220033 10128 20039 58010
KLRD 101656Z 00000KT 10SM CLR 12/03 A3046 RMK AO2 SLP333 T01170033
KLRD 101556Z 00000KT 10SM CLR 10/04 A3048 RMK AO2 SLP339 T01000039
KLRD 101456Z 32003KT 10SM CLR 07/04 A3047 RMK AO2 SLP335 T00720039 51022
KLRD 101356Z 32003KT 10SM CLR 04/03 A3045 RMK AO2 SLP330 T00440033
KLRD 101256Z 31005KT 10SM CLR 04/03 A3044 RMK AO2 SLP324 T00390028
KLRD 101156Z 28004KT 10SM CLR 04/03 A3040 RMK AO2 SLP312 T00440028 10083 20044 53002
KLRD 101056Z AUTO 04006KT 10SM CLR 05/03 A3039 RMK AO2 SLP310 T00500028
KLRD 100956Z AUTO 03005KT 10SM CLR 05/03 A3040 RMK AO2 SLP312 T00500033
KLRD 100756Z AUTO 06008KT 10SM CLR 06/03 A3040 RMK AO2 SLP312 T00610033
KLRD 100656Z AUTO 05011KT 10SM CLR 07/03 A3039 RMK AO2 SLP310 T00720033
KLRD 100556Z AUTO 04006KT 10SM CLR 08/05 A3040 RMK AO2 SLP311 T00780050 10128 20072 401670056 51018
KLRD 100456Z 36004KT 10SM CLR 09/04 A3038 RMK AO2 SLP306 T00890044
KLRD 100356Z 00000KT 10SM CLR 09/06 A3036 RMK AO2 SLP300 T00890056
KLRD 100256Z 02006KT 10SM CLR 09/05 A3034 RMK AO2 SLP293 T00890050 51015
KLRD 100156Z 01005KT 10SM CLR 10/06 A3033 RMK AO2 SLP287 T01000056